sensor_id;sensor_type;location;lat;lon;timestamp;temperature;humidity
3172;DHT22;1597;51.572;6.992;2023-08-30T00:00:46;16.70;98.40
3172;DHT22;1597;51.572;6.992;2023-08-30T00:03:12;16.70;98.80
3172;DHT22;1597;51.572;6.992;2023-08-30T00:05:42;16.70;99.10
3172;DHT22;1597;51.572;6.992;2023-08-30T00:08:09;16.70;99.30
3172;DHT22;1597;51.572;6.992;2023-08-30T00:10:34;16.60;99.90
3172;DHT22;1597;51.572;6.992;2023-08-30T00:13:00;16.60;99.90
3172;DHT22;1597;51.572;6.992;2023-08-30T00:15:27;16.60;99.90
3172;DHT22;1597;51.572;6.992;2023-08-30T00:17:53;16.60;99.90
3172;DHT22;1597;51.572;6.992;2023-08-30T00:20:19;16.60;99.90
3172;DHT22;1597;51.572;6.992;2023-08-30T00:22:45;16.50;99.90
3172;DHT22;1597;51.572;6.992;2023-08-30T00:25:14;16.40;99.90
3172;DHT22;1597;51.572;6.992;2023-08-30T00:27:40;16.40;99.90
3172;DHT22;1597;51.572;6.992;2023-08-30T00:30:07;16.40;99.90
3172;DHT22;1597;51.572;6.992;2023-08-30T00:32:34;16.40;99.90
3172;DHT22;1597;51.572;6.992;2023-08-30T00:35:01;16.40;99.90
3172;DHT22;1597;51.572;6.992;2023-08-30T00:37:26;16.40;99.90
3172;DHT22;1597;51.572;6.992;2023-08-30T00:39:52;16.30;99.90
3172;DHT22;1597;51.572;6.992;2023-08-30T00:42:18;16.30;99.90
3172;DHT22;1597;51.572;6.992;2023-08-30T00:44:44;16.30;99.90
3172;DHT22;1597;51.572;6.992;2023-08-30T00:47:10;16.30;99.90
3172;DHT22;1597;51.572;6.992;2023-08-30T00:49:36;16.30;99.90
3172;DHT22;1597;51.572;6.992;2023-08-30T00:52:06;16.20;99.90
3172;DHT22;1597;51.572;6.992;2023-08-30T00:54:33;16.20;99.90
3172;DHT22;1597;51.572;6.992;2023-08-30T00:57:00;16.20;99.90
3172;DHT22;1597;51.572;6.992;2023-08-30T00:59:27;16.10;99.90
3172;DHT22;1597;51.572;6.992;2023-08-30T01:01:54;16.20;99.90
3172;DHT22;1597;51.572;6.992;2023-08-30T01:04:20;16.10;99.90
3172;DHT22;1597;51.572;6.992;2023-08-30T01:06:47;16.10;99.90
3172;DHT22;1597;51.572;6.992;2023-08-30T01:09:14;16.10;99.90
3172;DHT22;1597;51.572;6.992;2023-08-30T01:14:40;16.10;99.90
3172;DHT22;1597;51.572;6.992;2023-08-30T01:17:11;16.10;99.90
3172;DHT22;1597;51.572;6.992;2023-08-30T01:20:00;16.10;99.90
3172;DHT22;1597;51.572;6.992;2023-08-30T01:23:06;16.10;99.90
3172;DHT22;1597;51.572;6.992;2023-08-30T01:25:48;16.10;99.90
3172;DHT22;1597;51.572;6.992;2023-08-30T01:28:26;16.10;99.90
3172;DHT22;1597;51.572;6.992;2023-08-30T01:30:55;16.00;99.90
3172;DHT22;1597;51.572;6.992;2023-08-30T01:33:23;15.90;99.90
3172;DHT22;1597;51.572;6.992;2023-08-30T01:35:50;15.90;99.90
3172;DHT22;1597;51.572;6.992;2023-08-30T01:38:17;15.80;99.90
3172;DHT22;1597;51.572;6.992;2023-08-30T01:40:44;15.80;99.90
3172;DHT22;1597;51.572;6.992;2023-08-30T01:43:11;15.80;99.90
3172;DHT22;1597;51.572;6.992;2023-08-30T01:45:42;15.80;99.90
3172;DHT22;1597;51.572;6.992;2023-08-30T01:48:15;15.70;99.90
3172;DHT22;1597;51.572;6.992;2023-08-30T01:50:42;15.70;99.90
3172;DHT22;1597;51.572;6.992;2023-08-30T01:53:11;15.70;99.90
3172;DHT22;1597;51.572;6.992;2023-08-30T01:55:38;15.70;99.90
3172;DHT22;1597;51.572;6.992;2023-08-30T01:58:05;15.70;99.90
3172;DHT22;1597;51.572;6.992;2023-08-30T02:00:32;15.70;99.90
3172;DHT22;1597;51.572;6.992;2023-08-30T02:02:58;15.70;99.90
3172;DHT22;1597;51.572;6.992;2023-08-30T02:05:24;15.80;99.90
3172;DHT22;1597;51.572;6.992;2023-08-30T02:08:15;15.80;99.90
3172;DHT22;1597;51.572;6.992;2023-08-30T02:10:55;15.80;99.90
3172;DHT22;1597;51.572;6.992;2023-08-30T02:13:25;15.80;99.90
3172;DHT22;1597;51.572;6.992;2023-08-30T02:15:55;15.80;99.90
3172;DHT22;1597;51.572;6.992;2023-08-30T02:18:23;15.80;99.90
3172;DHT22;1597;51.572;6.992;2023-08-30T02:20:49;15.80;99.90
3172;DHT22;1597;51.572;6.992;2023-08-30T02:23:15;15.80;99.90
3172;DHT22;1597;51.572;6.992;2023-08-30T02:25:41;15.80;99.90
3172;DHT22;1597;51.572;6.992;2023-08-30T02:28:07;15.70;99.90
3172;DHT22;1597;51.572;6.992;2023-08-30T02:30:32;15.70;99.90
3172;DHT22;1597;51.572;6.992;2023-08-30T02:32:58;15.70;99.90
3172;DHT22;1597;51.572;6.992;2023-08-30T02:35:24;15.60;99.90
3172;DHT22;1597;51.572;6.992;2023-08-30T02:37:50;15.60;99.90
3172;DHT22;1597;51.572;6.992;2023-08-30T02:40:15;15.70;99.90
3172;DHT22;1597;51.572;6.992;2023-08-30T02:42:41;15.70;99.90
3172;DHT22;1597;51.572;6.992;2023-08-30T02:45:07;15.60;99.90
3172;DHT22;1597;51.572;6.992;2023-08-30T02:47:34;15.60;99.90
3172;DHT22;1597;51.572;6.992;2023-08-30T02:49:59;15.60;99.90
3172;DHT22;1597;51.572;6.992;2023-08-30T02:52:25;15.60;99.90
3172;DHT22;1597;51.572;6.992;2023-08-30T02:54:51;15.60;99.90
3172;DHT22;1597;51.572;6.992;2023-08-30T02:57:17;15.60;99.90
3172;DHT22;1597;51.572;6.992;2023-08-30T02:59:42;15.60;99.90
3172;DHT22;1597;51.572;6.992;2023-08-30T03:02:08;15.60;99.90
3172;DHT22;1597;51.572;6.992;2023-08-30T03:04:34;15.60;99.90
3172;DHT22;1597;51.572;6.992;2023-08-30T03:07:00;15.60;99.90
3172;DHT22;1597;51.572;6.992;2023-08-30T03:09:25;15.50;99.90
3172;DHT22;1597;51.572;6.992;2023-08-30T03:11:51;15.50;99.90
3172;DHT22;1597;51.572;6.992;2023-08-30T03:14:17;15.40;99.90
3172;DHT22;1597;51.572;6.992;2023-08-30T03:16:42;15.40;99.90
3172;DHT22;1597;51.572;6.992;2023-08-30T03:19:10;15.40;99.90
3172;DHT22;1597;51.572;6.992;2023-08-30T03:21:36;15.50;99.90
3172;DHT22;1597;51.572;6.992;2023-08-30T03:24:02;15.50;99.90
3172;DHT22;1597;51.572;6.992;2023-08-30T03:26:28;15.50;99.90
3172;DHT22;1597;51.572;6.992;2023-08-30T03:28:53;15.40;99.90
3172;DHT22;1597;51.572;6.992;2023-08-30T03:31:20;15.40;99.90
3172;DHT22;1597;51.572;6.992;2023-08-30T03:33:48;15.40;99.90
3172;DHT22;1597;51.572;6.992;2023-08-30T03:36:16;15.40;99.90
3172;DHT22;1597;51.572;6.992;2023-08-30T03:38:43;15.50;99.90
3172;DHT22;1597;51.572;6.992;2023-08-30T03:41:11;15.40;99.90
3172;DHT22;1597;51.572;6.992;2023-08-30T03:43:37;15.40;99.90
3172;DHT22;1597;51.572;6.992;2023-08-30T03:46:03;15.30;99.90
3172;DHT22;1597;51.572;6.992;2023-08-30T03:48:30;15.40;99.90
3172;DHT22;1597;51.572;6.992;2023-08-30T03:50:56;15.40;99.90
3172;DHT22;1597;51.572;6.992;2023-08-30T03:53:23;15.40;99.90
3172;DHT22;1597;51.572;6.992;2023-08-30T03:55:49;15.40;99.90
3172;DHT22;1597;51.572;6.992;2023-08-30T03:58:16;15.30;99.90
3172;DHT22;1597;51.572;6.992;2023-08-30T04:00:43;15.40;99.90
3172;DHT22;1597;51.572;6.992;2023-08-30T04:03:09;15.40;99.90
3172;DHT22;1597;51.572;6.992;2023-08-30T04:05:38;15.40;99.90
3172;DHT22;1597;51.572;6.992;2023-08-30T04:08:05;15.40;99.90
3172;DHT22;1597;51.572;6.992;2023-08-30T04:10:41;15.40;99.90
3172;DHT22;1597;51.572;6.992;2023-08-30T04:13:09;15.40;99.90
3172;DHT22;1597;51.572;6.992;2023-08-30T04:15:36;15.40;99.90
3172;DHT22;1597;51.572;6.992;2023-08-30T04:18:03;15.40;99.90
3172;DHT22;1597;51.572;6.992;2023-08-30T04:20:30;15.40;99.90
3172;DHT22;1597;51.572;6.992;2023-08-30T04:22:56;15.40;99.90
3172;DHT22;1597;51.572;6.992;2023-08-30T04:25:23;15.40;99.90
3172;DHT22;1597;51.572;6.992;2023-08-30T04:27:49;15.40;99.90
3172;DHT22;1597;51.572;6.992;2023-08-30T04:30:16;15.40;99.90
3172;DHT22;1597;51.572;6.992;2023-08-30T04:32:42;15.40;99.90
3172;DHT22;1597;51.572;6.992;2023-08-30T04:35:08;15.30;99.90
3172;DHT22;1597;51.572;6.992;2023-08-30T04:37:35;15.30;99.90
3172;DHT22;1597;51.572;6.992;2023-08-30T04:40:00;15.30;99.90
3172;DHT22;1597;51.572;6.992;2023-08-30T04:42:28;15.30;99.90
3172;DHT22;1597;51.572;6.992;2023-08-30T04:44:54;15.30;99.90
3172;DHT22;1597;51.572;6.992;2023-08-30T04:47:21;15.20;99.90
3172;DHT22;1597;51.572;6.992;2023-08-30T04:49:54;15.20;99.90
3172;DHT22;1597;51.572;6.992;2023-08-30T04:52:19;15.20;99.90
3172;DHT22;1597;51.572;6.992;2023-08-30T04:54:45;15.10;99.90
3172;DHT22;1597;51.572;6.992;2023-08-30T04:57:12;15.10;99.90
3172;DHT22;1597;51.572;6.992;2023-08-30T04:59:42;15.10;99.90
3172;DHT22;1597;51.572;6.992;2023-08-30T05:02:08;15.10;99.90
3172;DHT22;1597;51.572;6.992;2023-08-30T05:04:34;15.10;99.90
3172;DHT22;1597;51.572;6.992;2023-08-30T05:07:00;15.10;99.90
3172;DHT22;1597;51.572;6.992;2023-08-30T05:09:25;14.90;99.90
3172;DHT22;1597;51.572;6.992;2023-08-30T05:11:52;15.10;99.90
3172;DHT22;1597;51.572;6.992;2023-08-30T05:14:19;15.10;99.90
3172;DHT22;1597;51.572;6.992;2023-08-30T05:16:45;15.10;99.90
3172;DHT22;1597;51.572;6.992;2023-08-30T05:19:12;15.10;99.90
3172;DHT22;1597;51.572;6.992;2023-08-30T05:21:37;15.10;99.90
3172;DHT22;1597;51.572;6.992;2023-08-30T05:24:04;15.00;99.90
3172;DHT22;1597;51.572;6.992;2023-08-30T05:26:33;15.00;99.90
3172;DHT22;1597;51.572;6.992;2023-08-30T05:28:59;14.90;99.90
3172;DHT22;1597;51.572;6.992;2023-08-30T05:31:24;14.90;99.90
3172;DHT22;1597;51.572;6.992;2023-08-30T05:33:50;14.90;99.90
3172;DHT22;1597;51.572;6.992;2023-08-30T05:36:17;14.90;99.90
3172;DHT22;1597;51.572;6.992;2023-08-30T05:38:42;14.90;99.90
3172;DHT22;1597;51.572;6.992;2023-08-30T05:41:08;15.00;99.90
3172;DHT22;1597;51.572;6.992;2023-08-30T05:43:34;15.00;99.90
3172;DHT22;1597;51.572;6.992;2023-08-30T05:46:00;14.90;99.90
3172;DHT22;1597;51.572;6.992;2023-08-30T05:48:30;15.00;99.90
3172;DHT22;1597;51.572;6.992;2023-08-30T05:50:56;15.00;99.90
3172;DHT22;1597;51.572;6.992;2023-08-30T05:53:23;15.00;99.90
3172;DHT22;1597;51.572;6.992;2023-08-30T05:55:49;15.00;99.90
3172;DHT22;1597;51.572;6.992;2023-08-30T05:58:14;15.00;99.90
3172;DHT22;1597;51.572;6.992;2023-08-30T06:00:41;15.00;99.90
3172;DHT22;1597;51.572;6.992;2023-08-30T06:03:07;15.10;99.90
3172;DHT22;1597;51.572;6.992;2023-08-30T06:05:33;15.10;99.90
3172;DHT22;1597;51.572;6.992;2023-08-30T06:08:00;15.20;99.90
3172;DHT22;1597;51.572;6.992;2023-08-30T06:10:26;15.20;99.90
3172;DHT22;1597;51.572;6.992;2023-08-30T06:12:53;15.30;99.90
3172;DHT22;1597;51.572;6.992;2023-08-30T06:15:19;15.30;99.90
3172;DHT22;1597;51.572;6.992;2023-08-30T06:17:44;15.30;99.90
3172;DHT22;1597;51.572;6.992;2023-08-30T06:20:12;15.30;99.90
3172;DHT22;1597;51.572;6.992;2023-08-30T06:22:38;15.40;99.90
3172;DHT22;1597;51.572;6.992;2023-08-30T06:25:05;15.40;99.90
3172;DHT22;1597;51.572;6.992;2023-08-30T06:27:32;15.50;99.90
3172;DHT22;1597;51.572;6.992;2023-08-30T06:29:58;15.60;99.90
3172;DHT22;1597;51.572;6.992;2023-08-30T06:32:24;15.70;99.90
3172;DHT22;1597;51.572;6.992;2023-08-30T06:34:50;15.80;99.90
3172;DHT22;1597;51.572;6.992;2023-08-30T06:37:16;15.80;99.90
3172;DHT22;1597;51.572;6.992;2023-08-30T06:39:42;15.90;99.90
3172;DHT22;1597;51.572;6.992;2023-08-30T06:42:08;15.90;99.90
3172;DHT22;1597;51.572;6.992;2023-08-30T06:44:34;16.00;99.90
3172;DHT22;1597;51.572;6.992;2023-08-30T06:47:00;16.10;99.90
3172;DHT22;1597;51.572;6.992;2023-08-30T06:49:25;16.10;99.90
3172;DHT22;1597;51.572;6.992;2023-08-30T06:51:51;16.20;99.90
3172;DHT22;1597;51.572;6.992;2023-08-30T06:54:17;16.30;99.90
3172;DHT22;1597;51.572;6.992;2023-08-30T06:56:57;16.30;99.90
3172;DHT22;1597;51.572;6.992;2023-08-30T06:59:24;16.30;99.90
3172;DHT22;1597;51.572;6.992;2023-08-30T07:01:50;16.40;99.90
3172;DHT22;1597;51.572;6.992;2023-08-30T07:04:15;16.40;99.90
3172;DHT22;1597;51.572;6.992;2023-08-30T07:06:41;16.40;99.90
3172;DHT22;1597;51.572;6.992;2023-08-30T07:09:07;16.40;99.90
3172;DHT22;1597;51.572;6.992;2023-08-30T07:11:34;16.40;99.90
3172;DHT22;1597;51.572;6.992;2023-08-30T07:14:00;16.50;99.90
3172;DHT22;1597;51.572;6.992;2023-08-30T07:16:26;16.50;99.90
3172;DHT22;1597;51.572;6.992;2023-08-30T07:18:52;16.60;99.90
3172;DHT22;1597;51.572;6.992;2023-08-30T07:21:18;16.60;99.90
3172;DHT22;1597;51.572;6.992;2023-08-30T07:23:44;16.70;99.90
3172;DHT22;1597;51.572;6.992;2023-08-30T07:26:10;16.70;99.90
3172;DHT22;1597;51.572;6.992;2023-08-30T07:28:35;16.80;99.90
3172;DHT22;1597;51.572;6.992;2023-08-30T07:31:05;16.80;99.90
3172;DHT22;1597;51.572;6.992;2023-08-30T07:33:31;16.90;99.90
3172;DHT22;1597;51.572;6.992;2023-08-30T07:35:57;17.00;99.90
3172;DHT22;1597;51.572;6.992;2023-08-30T07:38:23;17.00;94.30
3172;DHT22;1597;51.572;6.992;2023-08-30T07:40:48;17.00;92.20
3172;DHT22;1597;51.572;6.992;2023-08-30T07:43:14;17.10;91.90
3172;DHT22;1597;51.572;6.992;2023-08-30T07:45:40;17.10;88.90
3172;DHT22;1597;51.572;6.992;2023-08-30T07:48:06;17.20;81.80
3172;DHT22;1597;51.572;6.992;2023-08-30T07:50:32;17.20;80.20
3172;DHT22;1597;51.572;6.992;2023-08-30T07:52:58;17.30;80.10
3172;DHT22;1597;51.572;6.992;2023-08-30T07:55:23;17.30;73.90
3172;DHT22;1597;51.572;6.992;2023-08-30T07:57:49;17.40;75.30
3172;DHT22;1597;51.572;6.992;2023-08-30T08:00:15;17.40;79.50
3172;DHT22;1597;51.572;6.992;2023-08-30T08:02:41;17.40;79.20
3172;DHT22;1597;51.572;6.992;2023-08-30T08:05:07;17.50;76.90
3172;DHT22;1597;51.572;6.992;2023-08-30T08:07:33;17.50;74.50
3172;DHT22;1597;51.572;6.992;2023-08-30T08:09:59;17.50;65.70
3172;DHT22;1597;51.572;6.992;2023-08-30T08:12:26;17.60;63.30
3172;DHT22;1597;51.572;6.992;2023-08-30T08:14:52;17.70;50.80
3172;DHT22;1597;51.572;6.992;2023-08-30T08:17:18;17.70;53.80
3172;DHT22;1597;51.572;6.992;2023-08-30T08:19:44;17.70;52.50
3172;DHT22;1597;51.572;6.992;2023-08-30T08:22:10;17.80;44.10
3172;DHT22;1597;51.572;6.992;2023-08-30T08:24:36;17.70;45.40
3172;DHT22;1597;51.572;6.992;2023-08-30T08:27:02;17.80;40.50
3172;DHT22;1597;51.572;6.992;2023-08-30T08:29:28;17.80;42.40
3172;DHT22;1597;51.572;6.992;2023-08-30T08:31:54;17.90;40.90
3172;DHT22;1597;51.572;6.992;2023-08-30T08:34:20;18.00;39.70
3172;DHT22;1597;51.572;6.992;2023-08-30T08:36:46;17.90;38.60
3172;DHT22;1597;51.572;6.992;2023-08-30T08:39:12;17.90;38.90
3172;DHT22;1597;51.572;6.992;2023-08-30T08:41:41;18.00;38.30
3172;DHT22;1597;51.572;6.992;2023-08-30T08:44:09;18.00;35.00
3172;DHT22;1597;51.572;6.992;2023-08-30T08:46:36;18.10;35.60
3172;DHT22;1597;51.572;6.992;2023-08-30T08:49:17;18.20;34.30
3172;DHT22;1597;51.572;6.992;2023-08-30T08:51:44;18.30;31.70
3172;DHT22;1597;51.572;6.992;2023-08-30T08:54:11;18.10;30.70
3172;DHT22;1597;51.572;6.992;2023-08-30T08:56:39;18.40;25.00
3172;DHT22;1597;51.572;6.992;2023-08-30T08:59:06;18.50;20.00
3172;DHT22;1597;51.572;6.992;2023-08-30T09:01:34;18.50;24.20
3172;DHT22;1597;51.572;6.992;2023-08-30T09:04:05;18.50;21.70
3172;DHT22;1597;51.572;6.992;2023-08-30T09:06:33;18.60;22.30
3172;DHT22;1597;51.572;6.992;2023-08-30T09:09:00;18.50;24.50
3172;DHT22;1597;51.572;6.992;2023-08-30T09:11:26;18.50;28.40
3172;DHT22;1597;51.572;6.992;2023-08-30T09:13:52;18.50;22.80
3172;DHT22;1597;51.572;6.992;2023-08-30T09:16:18;18.50;26.10
3172;DHT22;1597;51.572;6.992;2023-08-30T09:18:44;18.60;22.50
3172;DHT22;1597;51.572;6.992;2023-08-30T09:21:10;18.50;23.60
3172;DHT22;1597;51.572;6.992;2023-08-30T09:23:37;18.50;21.50
3172;DHT22;1597;51.572;6.992;2023-08-30T09:26:04;18.40;20.40
3172;DHT22;1597;51.572;6.992;2023-08-30T09:28:30;18.40;25.30
3172;DHT22;1597;51.572;6.992;2023-08-30T09:30:59;18.70;25.10
3172;DHT22;1597;51.572;6.992;2023-08-30T09:33:33;18.30;42.00
3172;DHT22;1597;51.572;6.992;2023-08-30T09:35:59;18.20;47.40
3172;DHT22;1597;51.572;6.992;2023-08-30T09:38:26;18.00;70.00
3172;DHT22;1597;51.572;6.992;2023-08-30T09:41:12;17.90;78.40
3172;DHT22;1597;51.572;6.992;2023-08-30T09:43:42;17.80;91.80
3172;DHT22;1597;51.572;6.992;2023-08-30T09:46:09;17.70;95.40
3172;DHT22;1597;51.572;6.992;2023-08-30T09:48:35;17.50;99.70
3172;DHT22;1597;51.572;6.992;2023-08-30T09:51:03;17.50;99.90
3172;DHT22;1597;51.572;6.992;2023-08-30T09:53:36;17.40;99.90
3172;DHT22;1597;51.572;6.992;2023-08-30T09:56:07;17.20;99.90
3172;DHT22;1597;51.572;6.992;2023-08-30T09:58:35;17.10;99.90
3172;DHT22;1597;51.572;6.992;2023-08-30T10:01:01;17.00;99.90
3172;DHT22;1597;51.572;6.992;2023-08-30T10:03:30;17.00;99.90
3172;DHT22;1597;51.572;6.992;2023-08-30T10:05:56;16.90;99.90
3172;DHT22;1597;51.572;6.992;2023-08-30T10:08:25;16.70;99.90
3172;DHT22;1597;51.572;6.992;2023-08-30T10:10:55;16.60;99.90
3172;DHT22;1597;51.572;6.992;2023-08-30T10:13:25;16.50;99.90
3172;DHT22;1597;51.572;6.992;2023-08-30T10:15:55;16.50;99.90
3172;DHT22;1597;51.572;6.992;2023-08-30T10:18:25;16.40;99.90
3172;DHT22;1597;51.572;6.992;2023-08-30T10:20:54;16.40;99.90
3172;DHT22;1597;51.572;6.992;2023-08-30T10:23:21;16.40;99.90
3172;DHT22;1597;51.572;6.992;2023-08-30T10:25:49;16.30;99.90
3172;DHT22;1597;51.572;6.992;2023-08-30T10:28:17;16.20;99.90
3172;DHT22;1597;51.572;6.992;2023-08-30T10:30:45;16.10;99.90
3172;DHT22;1597;51.572;6.992;2023-08-30T10:33:15;16.10;99.90
3172;DHT22;1597;51.572;6.992;2023-08-30T10:35:49;16.10;99.90
3172;DHT22;1597;51.572;6.992;2023-08-30T10:38:28;16.10;99.90
3172;DHT22;1597;51.572;6.992;2023-08-30T10:40:55;16.10;99.90
3172;DHT22;1597;51.572;6.992;2023-08-30T10:43:34;16.10;99.90
3172;DHT22;1597;51.572;6.992;2023-08-30T10:46:02;16.10;99.90
3172;DHT22;1597;51.572;6.992;2023-08-30T10:48:36;16.00;99.90
3172;DHT22;1597;51.572;6.992;2023-08-30T10:51:04;15.90;99.90
3172;DHT22;1597;51.572;6.992;2023-08-30T10:53:32;15.90;99.90
3172;DHT22;1597;51.572;6.992;2023-08-30T10:56:11;15.90;99.90
3172;DHT22;1597;51.572;6.992;2023-08-30T10:58:44;15.90;99.90
3172;DHT22;1597;51.572;6.992;2023-08-30T11:01:10;15.90;99.90
3172;DHT22;1597;51.572;6.992;2023-08-30T11:03:41;15.80;99.90
3172;DHT22;1597;51.572;6.992;2023-08-30T11:06:07;15.80;99.90
3172;DHT22;1597;51.572;6.992;2023-08-30T11:08:33;15.80;99.90
3172;DHT22;1597;51.572;6.992;2023-08-30T11:11:07;15.80;99.90
3172;DHT22;1597;51.572;6.992;2023-08-30T11:13:35;15.80;99.90
3172;DHT22;1597;51.572;6.992;2023-08-30T11:16:01;15.80;99.90
3172;DHT22;1597;51.572;6.992;2023-08-30T11:18:29;15.80;99.90
3172;DHT22;1597;51.572;6.992;2023-08-30T11:21:00;15.80;99.90
3172;DHT22;1597;51.572;6.992;2023-08-30T11:23:26;15.80;99.90
3172;DHT22;1597;51.572;6.992;2023-08-30T11:25:52;15.80;99.90
3172;DHT22;1597;51.572;6.992;2023-08-30T11:28:22;15.80;99.90
3172;DHT22;1597;51.572;6.992;2023-08-30T11:30:49;15.80;99.90
3172;DHT22;1597;51.572;6.992;2023-08-30T11:33:18;15.80;99.90
3172;DHT22;1597;51.572;6.992;2023-08-30T11:35:45;15.80;99.90
3172;DHT22;1597;51.572;6.992;2023-08-30T11:38:13;15.70;99.90
3172;DHT22;1597;51.572;6.992;2023-08-30T11:40:39;15.80;99.90
3172;DHT22;1597;51.572;6.992;2023-08-30T11:43:06;15.80;99.90
3172;DHT22;1597;51.572;6.992;2023-08-30T11:45:33;15.80;99.90
3172;DHT22;1597;51.572;6.992;2023-08-30T11:48:00;15.80;99.90
3172;DHT22;1597;51.572;6.992;2023-08-30T11:50:27;15.80;99.90
3172;DHT22;1597;51.572;6.992;2023-08-30T11:52:53;15.80;99.90
3172;DHT22;1597;51.572;6.992;2023-08-30T11:55:21;15.80;99.90
3172;DHT22;1597;51.572;6.992;2023-08-30T11:57:50;15.80;99.90
3172;DHT22;1597;51.572;6.992;2023-08-30T12:00:18;15.80;99.90
3172;DHT22;1597;51.572;6.992;2023-08-30T12:02:46;15.80;99.90
3172;DHT22;1597;51.572;6.992;2023-08-30T12:05:15;15.80;99.90
3172;DHT22;1597;51.572;6.992;2023-08-30T12:07:42;15.80;99.90
3172;DHT22;1597;51.572;6.992;2023-08-30T12:10:09;15.80;99.90
3172;DHT22;1597;51.572;6.992;2023-08-30T12:12:37;15.90;99.90
3172;DHT22;1597;51.572;6.992;2023-08-30T12:15:10;15.90;99.90
3172;DHT22;1597;51.572;6.992;2023-08-30T12:17:36;15.90;99.90
3172;DHT22;1597;51.572;6.992;2023-08-30T12:20:02;16.00;99.90
3172;DHT22;1597;51.572;6.992;2023-08-30T12:22:39;16.00;99.90
3172;DHT22;1597;51.572;6.992;2023-08-30T12:25:25;16.10;99.90
3172;DHT22;1597;51.572;6.992;2023-08-30T12:27:52;16.20;99.90
3172;DHT22;1597;51.572;6.992;2023-08-30T12:30:18;16.10;99.90
3172;DHT22;1597;51.572;6.992;2023-08-30T12:32:45;16.10;99.90
3172;DHT22;1597;51.572;6.992;2023-08-30T12:35:11;16.20;99.90
3172;DHT22;1597;51.572;6.992;2023-08-30T12:37:37;16.20;99.90
3172;DHT22;1597;51.572;6.992;2023-08-30T12:40:04;16.20;99.90
3172;DHT22;1597;51.572;6.992;2023-08-30T12:42:32;16.20;99.90
3172;DHT22;1597;51.572;6.992;2023-08-30T12:44:59;16.10;99.90
3172;DHT22;1597;51.572;6.992;2023-08-30T12:47:26;16.20;99.90
3172;DHT22;1597;51.572;6.992;2023-08-30T12:49:52;16.10;99.90
3172;DHT22;1597;51.572;6.992;2023-08-30T12:52:18;16.10;99.90
3172;DHT22;1597;51.572;6.992;2023-08-30T12:54:44;16.10;99.90
3172;DHT22;1597;51.572;6.992;2023-08-30T12:57:10;16.10;99.90
3172;DHT22;1597;51.572;6.992;2023-08-30T12:59:36;16.10;99.90
3172;DHT22;1597;51.572;6.992;2023-08-30T13:02:02;16.10;99.90
3172;DHT22;1597;51.572;6.992;2023-08-30T13:04:28;16.10;99.90
3172;DHT22;1597;51.572;6.992;2023-08-30T13:06:53;16.10;99.90
3172;DHT22;1597;51.572;6.992;2023-08-30T13:09:19;16.10;99.90
3172;DHT22;1597;51.572;6.992;2023-08-30T13:11:45;16.10;99.90
3172;DHT22;1597;51.572;6.992;2023-08-30T13:14:11;16.10;99.90
3172;DHT22;1597;51.572;6.992;2023-08-30T13:16:37;16.10;99.90
3172;DHT22;1597;51.572;6.992;2023-08-30T13:19:02;16.10;99.90
3172;DHT22;1597;51.572;6.992;2023-08-30T13:21:28;16.10;99.90
3172;DHT22;1597;51.572;6.992;2023-08-30T13:23:54;16.10;99.90
3172;DHT22;1597;51.572;6.992;2023-08-30T13:26:21;16.10;99.90
3172;DHT22;1597;51.572;6.992;2023-08-30T13:28:47;16.10;99.90
3172;DHT22;1597;51.572;6.992;2023-08-30T13:31:13;16.10;99.90
3172;DHT22;1597;51.572;6.992;2023-08-30T13:33:39;16.20;99.90
3172;DHT22;1597;51.572;6.992;2023-08-30T13:36:05;16.10;99.90
3172;DHT22;1597;51.572;6.992;2023-08-30T13:38:31;16.10;99.90
3172;DHT22;1597;51.572;6.992;2023-08-30T13:41:00;16.10;99.90
3172;DHT22;1597;51.572;6.992;2023-08-30T13:43:25;16.10;99.90
3172;DHT22;1597;51.572;6.992;2023-08-30T13:45:58;16.00;99.90
3172;DHT22;1597;51.572;6.992;2023-08-30T13:48:25;16.00;99.90
3172;DHT22;1597;51.572;6.992;2023-08-30T13:50:51;16.00;99.90
3172;DHT22;1597;51.572;6.992;2023-08-30T13:53:17;16.10;99.90
3172;DHT22;1597;51.572;6.992;2023-08-30T13:55:47;16.10;99.90
3172;DHT22;1597;51.572;6.992;2023-08-30T13:58:14;16.10;99.90
3172;DHT22;1597;51.572;6.992;2023-08-30T14:00:40;16.00;99.90
3172;DHT22;1597;51.572;6.992;2023-08-30T14:03:06;16.00;99.90
3172;DHT22;1597;51.572;6.992;2023-08-30T14:05:33;16.00;99.90
3172;DHT22;1597;51.572;6.992;2023-08-30T14:07:59;15.90;99.90
3172;DHT22;1597;51.572;6.992;2023-08-30T14:10:25;15.90;99.90
3172;DHT22;1597;51.572;6.992;2023-08-30T14:12:51;15.90;99.90
3172;DHT22;1597;51.572;6.992;2023-08-30T14:15:17;15.90;99.90
3172;DHT22;1597;51.572;6.992;2023-08-30T14:17:43;15.80;99.90
3172;DHT22;1597;51.572;6.992;2023-08-30T14:20:09;15.80;99.90
3172;DHT22;1597;51.572;6.992;2023-08-30T14:22:36;15.80;99.90
3172;DHT22;1597;51.572;6.992;2023-08-30T14:25:02;15.80;99.90
3172;DHT22;1597;51.572;6.992;2023-08-30T14:27:28;15.90;99.90
3172;DHT22;1597;51.572;6.992;2023-08-30T14:29:54;15.90;99.90
3172;DHT22;1597;51.572;6.992;2023-08-30T14:32:20;15.90;99.90
3172;DHT22;1597;51.572;6.992;2023-08-30T14:34:45;16.00;99.90
3172;DHT22;1597;51.572;6.992;2023-08-30T14:37:11;15.90;99.90
3172;DHT22;1597;51.572;6.992;2023-08-30T14:39:37;15.90;99.90
3172;DHT22;1597;51.572;6.992;2023-08-30T14:42:03;15.90;99.90
3172;DHT22;1597;51.572;6.992;2023-08-30T14:44:29;15.90;99.90
3172;DHT22;1597;51.572;6.992;2023-08-30T14:46:55;15.90;99.90
3172;DHT22;1597;51.572;6.992;2023-08-30T14:49:22;15.80;99.90
3172;DHT22;1597;51.572;6.992;2023-08-30T14:51:48;15.80;99.90
3172;DHT22;1597;51.572;6.992;2023-08-30T14:54:13;15.80;99.90
3172;DHT22;1597;51.572;6.992;2023-08-30T14:56:39;15.80;99.90
3172;DHT22;1597;51.572;6.992;2023-08-30T14:59:05;15.80;99.90
3172;DHT22;1597;51.572;6.992;2023-08-30T15:01:31;15.80;99.90
3172;DHT22;1597;51.572;6.992;2023-08-30T15:03:57;15.80;99.90
3172;DHT22;1597;51.572;6.992;2023-08-30T15:06:22;15.80;99.90
3172;DHT22;1597;51.572;6.992;2023-08-30T15:08:48;15.80;99.90
3172;DHT22;1597;51.572;6.992;2023-08-30T15:11:14;15.70;99.90
3172;DHT22;1597;51.572;6.992;2023-08-30T15:13:40;15.60;99.90
3172;DHT22;1597;51.572;6.992;2023-08-30T15:16:06;15.60;99.90
3172;DHT22;1597;51.572;6.992;2023-08-30T15:18:32;15.70;99.90
3172;DHT22;1597;51.572;6.992;2023-08-30T15:20:58;15.70;99.90
3172;DHT22;1597;51.572;6.992;2023-08-30T15:23:25;15.60;99.90
3172;DHT22;1597;51.572;6.992;2023-08-30T15:25:51;15.70;99.90
3172;DHT22;1597;51.572;6.992;2023-08-30T15:28:17;15.60;99.90
3172;DHT22;1597;51.572;6.992;2023-08-30T15:30:47;15.60;99.90
3172;DHT22;1597;51.572;6.992;2023-08-30T15:33:16;15.60;99.90
3172;DHT22;1597;51.572;6.992;2023-08-30T15:35:42;15.50;99.90
3172;DHT22;1597;51.572;6.992;2023-08-30T15:38:08;15.50;99.90
3172;DHT22;1597;51.572;6.992;2023-08-30T15:40:37;15.40;99.90
3172;DHT22;1597;51.572;6.992;2023-08-30T15:43:04;15.50;99.90
3172;DHT22;1597;51.572;6.992;2023-08-30T15:45:30;15.50;99.90
3172;DHT22;1597;51.572;6.992;2023-08-30T15:47:56;15.60;99.90
3172;DHT22;1597;51.572;6.992;2023-08-30T15:50:22;15.70;99.90
3172;DHT22;1597;51.572;6.992;2023-08-30T15:52:48;15.70;99.90
3172;DHT22;1597;51.572;6.992;2023-08-30T15:55:14;15.70;99.90
3172;DHT22;1597;51.572;6.992;2023-08-30T15:57:40;15.70;99.90
3172;DHT22;1597;51.572;6.992;2023-08-30T16:00:06;15.70;99.90
3172;DHT22;1597;51.572;6.992;2023-08-30T16:02:33;15.70;99.90
3172;DHT22;1597;51.572;6.992;2023-08-30T16:04:59;15.80;99.90